createdAt,value
2023-04-27T00:01:11.557Z,69.99
2023-04-27T00:03:38.563Z,70.01
2023-04-27T00:06:05.738Z,70.97
2023-04-27T00:08:33.831Z,70.30
2023-04-27T00:11:00.713Z,69.43
2023-04-27T00:13:27.724Z,70.16
2023-04-27T00:15:54.694Z,70.59
2023-04-27T00:18:21.420Z,69.93
2023-04-27T00:20:48.189Z,70.21
2023-04-27T00:23:14.846Z,69.90
2023-04-27T00:25:42.926Z,70.85
2023-04-27T00:28:09.573Z,70.07
2023-04-27T00:30:36.302Z,70.21
2023-04-27T00:33:03.024Z,70.45
2023-04-27T00:35:29.718Z,70.20
2023-04-27T00:37:56.386Z,69.21
2023-04-27T00:40:23.094Z,69.44
2023-04-27T00:42:51.107Z,69.91
2023-04-27T00:45:17.716Z,67.25
2023-04-27T00:47:45.126Z,72.74
2023-04-27T00:50:12.187Z,70.14
2023-04-27T00:52:39.118Z,70.30
2023-04-27T00:55:07.165Z,69.97
2023-04-27T00:57:34.190Z,69.89
2023-04-27T01:00:06.721Z,69.92
2023-04-27T01:02:33.587Z,70.67
2023-04-27T01:05:01.985Z,70.24
2023-04-27T01:07:29.204Z,67.94
2023-04-27T01:09:56.293Z,69.57
2023-04-27T01:12:22.934Z,69.83
2023-04-27T01:14:49.534Z,67.03
2023-04-27T01:17:18.281Z,75.23
2023-04-27T01:19:45.102Z,73.79
2023-04-27T01:22:11.774Z,71.67
2023-04-27T01:24:39.745Z,69.96
2023-04-27T01:27:06.310Z,69.84
2023-04-27T01:29:32.956Z,70.11
2023-04-27T01:31:59.797Z,70.20
2023-04-27T01:34:26.734Z,70.33
2023-04-27T01:36:53.280Z,69.77
2023-04-27T01:39:19.831Z,69.34
2023-04-27T01:41:47.835Z,68.24
2023-04-27T01:44:14.581Z,71.55
2023-04-27T01:46:41.426Z,70.88
2023-04-27T01:49:08.212Z,71.73
2023-04-27T01:51:34.803Z,70.97
2023-04-27T01:54:01.391Z,70.48
2023-04-27T01:56:27.948Z,70.99
2023-04-27T01:58:56.052Z,70.76
2023-04-27T02:01:22.879Z,70.86
2023-04-27T02:03:49.663Z,70.79
2023-04-27T02:06:16.549Z,70.89
2023-04-27T02:08:43.158Z,70.63
2023-04-27T02:11:09.845Z,70.61
2023-04-27T02:13:36.446Z,70.80
2023-04-27T02:16:05.206Z,70.67
2023-04-27T02:18:33.661Z,70.70
2023-04-27T02:21:00.673Z,70.55
2023-04-27T02:23:27.461Z,69.95
2023-04-27T02:25:54.129Z,70.60
2023-04-27T02:28:20.717Z,69.98
2023-04-27T02:30:47.790Z,70.59
2023-04-27T02:33:16.005Z,71.10
2023-04-27T02:35:42.697Z,70.82
2023-04-27T02:38:10.277Z,70.80
2023-04-27T02:40:36.851Z,70.49
2023-04-27T02:43:03.881Z,69.51
2023-04-27T02:45:30.786Z,69.93
2023-04-27T02:47:57.366Z,70.12
2023-04-27T02:50:25.413Z,71.40
2023-04-27T02:52:52.025Z,69.86
2023-04-27T02:55:21.419Z,74.09
2023-04-27T02:57:48.108Z,71.49
2023-04-27T03:00:15.489Z,71.73
2023-04-27T03:02:42.401Z,70.83
2023-04-27T03:05:09.370Z,70.39
2023-04-27T03:07:37.372Z,70.46
2023-04-27T03:10:04.628Z,70.50
2023-04-27T03:12:31.222Z,71.23
2023-04-27T03:14:57.826Z,71.40
2023-04-27T03:17:24.423Z,71.27
2023-04-27T03:19:51.070Z,70.33
2023-04-27T03:22:17.688Z,70.86
2023-04-27T03:24:45.709Z,69.32
2023-04-27T03:27:12.383Z,70.99
2023-04-27T03:29:39.005Z,70.65
2023-04-27T03:32:06.412Z,70.84
2023-04-27T03:34:33.331Z,71.04
2023-04-27T03:36:59.916Z,70.70
2023-04-27T03:39:27.590Z,70.82
2023-04-27T03:41:55.507Z,69.67
2023-04-27T03:44:22.126Z,71.69
2023-04-27T03:46:48.695Z,70.56
2023-04-27T03:49:15.886Z,71.80
2023-04-27T03:51:42.841Z,74.71
2023-04-27T03:54:10.055Z,72.58
2023-04-27T03:56:37.072Z,73.13
2023-04-27T03:59:05.276Z,73.67
2023-04-27T04:01:32.014Z,71.31
2023-04-27T04:03:58.812Z,70.89
2023-04-27T04:06:26.113Z,75.60
2023-04-27T04:08:52.706Z,74.51
2023-04-27T04:11:19.327Z,72.55
2023-04-27T04:13:46.121Z,71.79
2023-04-27T04:16:14.163Z,71.68
2023-04-27T04:18:40.956Z,70.74
2023-04-27T04:21:09.529Z,71.07
2023-04-27T04:23:36.091Z,71.22
2023-04-27T04:26:02.713Z,70.75
2023-04-27T04:28:29.286Z,71.08
2023-04-27T04:30:56.746Z,70.49
2023-04-27T04:33:26.164Z,70.21
2023-04-27T04:35:53.544Z,70.88
2023-04-27T04:38:20.144Z,70.32
2023-04-27T04:40:46.874Z,70.94
2023-04-27T04:43:13.696Z,70.99
2023-04-27T04:45:40.522Z,70.85
2023-04-27T04:48:07.167Z,72.86
2023-04-27T04:50:35.172Z,72.28
2023-04-27T04:53:02.372Z,78.60
2023-04-27T04:55:28.987Z,75.17
2023-04-27T04:57:55.561Z,72.53
2023-04-27T05:00:22.487Z,74.10
2023-04-27T05:02:49.425Z,71.71
2023-04-27T05:05:16.698Z,72.66
2023-04-27T05:07:44.848Z,71.66
2023-04-27T05:10:11.694Z,78.39
2023-04-27T05:12:38.711Z,74.88
2023-04-27T05:15:06.337Z,79.43
2023-04-27T05:17:32.989Z,78.05
2023-04-27T05:19:59.688Z,73.24
2023-04-27T05:22:26.342Z,71.55
2023-04-27T05:24:54.354Z,71.84
2023-04-27T05:27:20.943Z,72.24
2023-04-27T05:29:47.508Z,71.41
2023-04-27T05:32:14.084Z,71.69
2023-04-27T05:34:41.124Z,71.21
2023-04-27T05:37:07.789Z,70.80
2023-04-27T05:39:34.527Z,70.74
2023-04-27T05:42:02.977Z,71.95
2023-04-27T05:44:29.645Z,71.22
2023-04-27T05:46:56.431Z,71.86
2023-04-27T05:49:23.281Z,71.80
2023-04-27T05:51:49.974Z,70.96
2023-04-27T05:54:16.639Z,71.03
2023-04-27T05:56:43.348Z,71.91
2023-04-27T05:59:11.688Z,71.44
2023-04-27T06:01:38.916Z,71.15
2023-04-27T06:04:05.674Z,71.40
2023-04-27T06:06:33.258Z,71.44
2023-04-27T06:08:59.896Z,70.15
2023-04-27T06:11:26.868Z,73.24
2023-04-27T06:13:53.478Z,70.73
2023-04-27T06:16:21.532Z,70.50
2023-04-27T06:18:49.984Z,71.19
2023-04-27T06:21:16.644Z,70.87
2023-04-27T06:23:43.208Z,71.11
2023-04-27T06:26:09.877Z,71.72
2023-04-27T06:28:36.516Z,71.15
2023-04-27T06:31:03.404Z,70.32
2023-04-27T06:33:31.368Z,70.65
2023-04-27T06:35:58.484Z,71.40
2023-04-27T06:38:25.180Z,71.51
2023-04-27T06:40:52.447Z,71.20
2023-04-27T06:43:19.276Z,71.33
2023-04-27T06:45:46.105Z,71.47
2023-04-27T06:48:12.807Z,70.93
2023-04-27T06:50:40.848Z,71.68
2023-04-27T06:53:08.204Z,71.10
2023-04-27T06:55:34.847Z,71.57
2023-04-27T06:58:03.533Z,71.30
2023-04-27T07:00:31.275Z,70.97
2023-04-27T07:02:58.137Z,70.43
2023-04-27T07:05:24.777Z,71.36
2023-04-27T07:07:52.928Z,70.96
2023-04-27T07:10:19.947Z,71.39
2023-04-27T07:12:46.684Z,73.74
2023-04-27T07:15:13.389Z,71.54
2023-04-27T07:17:40.027Z,71.59
2023-04-27T07:20:08.553Z,71.55
2023-04-27T07:22:35.293Z,71.20
2023-04-27T07:25:04.609Z,71.30
2023-04-27T07:27:31.915Z,71.29
2023-04-27T07:29:58.873Z,71.36
2023-04-27T07:32:25.595Z,71.08
2023-04-27T07:34:54.369Z,70.94
2023-04-27T07:37:21.419Z,75.83
2023-04-27T07:39:48.841Z,72.12
2023-04-27T07:42:16.818Z,71.20
2023-04-27T07:44:43.480Z,70.98
2023-04-27T07:47:10.657Z,73.11
2023-04-27T07:49:38.278Z,71.47
2023-04-27T07:52:05.515Z,72.17
2023-04-27T07:54:32.173Z,77.60
2023-04-27T07:56:58.774Z,79.28
2023-04-27T07:59:28.950Z,76.15
2023-04-27T08:02:04.030Z,74.39
2023-04-27T08:04:37.902Z,78.75
2023-04-27T08:07:05.267Z,77.80
2023-04-27T08:09:32.509Z,77.56
2023-04-27T08:11:59.120Z,78.44
2023-04-27T08:14:27.067Z,77.23
2023-04-27T08:16:53.700Z,74.29
2023-04-27T08:19:20.890Z,74.56
2023-04-27T08:21:47.456Z,72.71
2023-04-27T08:24:14.050Z,73.23
2023-04-27T08:26:41.136Z,73.51
2023-04-27T08:29:19.468Z,75.44
2023-04-27T08:31:52.958Z,74.92
2023-04-27T08:34:20.962Z,73.32
2023-04-27T08:36:47.532Z,72.48
2023-04-27T08:39:14.309Z,73.36
2023-04-27T08:41:43.723Z,75.10
2023-04-27T08:44:10.481Z,72.42
2023-04-27T08:46:38.327Z,75.28
2023-04-27T08:49:07.589Z,73.67
2023-04-27T08:51:34.709Z,73.75
2023-04-27T08:54:01.451Z,74.16
2023-04-27T08:56:29.671Z,73.30
2023-04-27T08:58:57.640Z,72.42
2023-04-27T09:01:26.132Z,72.55
2023-04-27T09:03:56.899Z,72.50
2023-04-27T09:06:31.872Z,73.04
2023-04-27T09:08:59.308Z,72.99
2023-04-27T09:11:31.315Z,72.57
2023-04-27T09:13:59.845Z,76.60
2023-04-27T09:16:29.290Z,74.75
2023-04-27T09:18:57.144Z,72.39
2023-04-27T09:21:24.725Z,73.40
2023-04-27T09:23:53.098Z,74.98
2023-04-27T09:26:21.886Z,73.33
2023-04-27T09:28:49.950Z,72.37
2023-04-27T09:31:17.402Z,72.26
2023-04-27T09:33:45.787Z,72.62
2023-04-27T09:36:12.431Z,74.24
2023-04-27T09:38:39.425Z,74.25
2023-04-27T09:43:44.418Z,72.79
2023-04-27T09:46:12.341Z,73.10
2023-04-27T09:48:39.642Z,74.58
2023-04-27T09:51:06.902Z,73.18
2023-04-27T09:53:37.111Z,72.39
2023-04-27T09:56:16.353Z,73.70
2023-04-27T09:59:01.608Z,70.37
2023-04-27T10:01:37.573Z,72.44
2023-04-27T10:04:20.631Z,70.95
2023-04-27T10:07:03.638Z,71.80
2023-04-27T10:09:39.954Z,68.94
2023-04-27T10:12:18.165Z,71.43
2023-04-27T10:14:56.740Z,69.53
2023-04-27T10:17:31.240Z,71.95
2023-04-27T10:19:59.617Z,70.17
2023-04-27T10:22:39.179Z,66.74
2023-04-27T10:25:24.027Z,68.99
2023-04-27T10:27:52.576Z,70.61
2023-04-27T10:32:57.330Z,69.86
2023-04-27T10:35:33.508Z,70.16
2023-04-27T10:38:06.943Z,70.44
2023-04-27T10:40:35.056Z,69.00
2023-04-27T10:43:09.268Z,69.38
2023-04-27T10:45:35.914Z,71.54
2023-04-27T10:48:05.231Z,68.12
2023-04-27T10:50:32.049Z,68.29
2023-04-27T10:53:04.151Z,64.30
2023-04-27T10:55:31.417Z,68.32
2023-04-27T10:57:58.306Z,65.81
2023-04-27T11:00:26.774Z,63.06
2023-04-27T11:02:54.149Z,62.18
2023-04-27T11:05:25.005Z,65.19
2023-04-27T11:07:51.931Z,63.84
2023-04-27T11:10:19.447Z,68.05
2023-04-27T11:12:46.322Z,64.23
2023-04-27T11:15:14.186Z,65.89
2023-04-27T11:17:41.542Z,64.25
2023-04-27T11:20:09.444Z,63.34
2023-04-27T11:22:46.112Z,61.27
2023-04-27T11:25:12.848Z,64.34
2023-04-27T11:27:40.370Z,64.33
2023-04-27T11:30:19.295Z,64.74
2023-04-27T11:32:45.974Z,62.34
2023-04-27T11:35:13.561Z,64.06
2023-04-27T11:37:40.148Z,63.32
2023-04-27T11:40:10.804Z,65.63
2023-04-27T11:42:37.390Z,68.22
2023-04-27T11:45:09.098Z,60.83
2023-04-27T11:47:36.934Z,61.95
2023-04-27T11:50:06.157Z,63.24
2023-04-27T11:52:34.348Z,64.14
2023-04-27T11:55:02.111Z,64.44
2023-04-27T11:57:31.975Z,64.52
2023-04-27T12:00:01.447Z,64.02
2023-04-27T12:02:29.412Z,64.89
2023-04-27T12:04:56.790Z,64.61
2023-04-27T12:07:23.518Z,66.56
2023-04-27T12:09:50.157Z,65.74
2023-04-27T12:12:22.208Z,64.90
2023-04-27T12:14:50.688Z,66.67
2023-04-27T12:17:17.533Z,65.84
2023-04-27T12:19:44.175Z,66.28
2023-04-27T12:22:11.196Z,67.99
2023-04-27T12:24:37.993Z,68.66
2023-04-27T12:27:05.154Z,72.20
2023-04-27T12:29:32.153Z,70.41
2023-04-27T12:32:00.265Z,70.80
2023-04-27T12:34:28.397Z,71.72
2023-04-27T12:36:55.110Z,74.62
2023-04-27T12:39:25.300Z,75.90
2023-04-27T12:41:52.962Z,75.24
2023-04-27T12:44:21.324Z,74.96
2023-04-27T12:46:48.413Z,72.58
2023-04-27T12:49:17.170Z,73.42
2023-04-27T12:51:45.442Z,72.84
2023-04-27T12:54:12.994Z,73.78
2023-04-27T12:56:39.886Z,73.20
2023-04-27T12:59:06.787Z,73.00
2023-04-27T13:01:33.766Z,76.17
2023-04-27T13:04:02.102Z,76.30
2023-04-27T13:06:31.253Z,75.52
2023-04-27T13:08:58.158Z,73.59
2023-04-27T13:11:25.246Z,74.22
2023-04-27T13:13:52.110Z,73.80
2023-04-27T13:16:21.666Z,73.65
2023-04-27T13:18:49.817Z,73.13
2023-04-27T13:21:18.221Z,72.30
2023-04-27T13:23:47.683Z,72.75
2023-04-27T13:26:14.624Z,70.11
2023-04-27T13:28:41.661Z,68.40
2023-04-27T13:31:08.473Z,70.61
2023-04-27T13:33:41.401Z,70.13
2023-04-27T13:36:08.462Z,71.20
2023-04-27T13:38:35.079Z,72.04
2023-04-27T13:41:03.741Z,72.03
2023-04-27T13:43:31.064Z,72.55
2023-04-27T13:46:00.290Z,72.52
2023-04-27T13:48:28.110Z,69.51
2023-04-27T13:50:55.507Z,70.88
2023-04-27T13:53:25.687Z,71.31
2023-04-27T13:55:53.039Z,71.41
2023-04-27T13:58:22.255Z,69.31
2023-04-27T14:00:52.005Z,70.50
2023-04-27T14:03:18.939Z,72.74
2023-04-27T14:05:48.247Z,72.47
2023-04-27T14:08:14.859Z,70.27
2023-04-27T14:10:41.725Z,68.71
2023-04-27T14:13:08.421Z,69.80
2023-04-27T14:15:37.383Z,69.33
2023-04-27T14:18:06.006Z,69.23
2023-04-27T14:20:33.033Z,67.66
2023-04-27T14:23:00.357Z,71.74
2023-04-27T14:25:29.649Z,72.17
2023-04-27T14:27:56.288Z,72.50
2023-04-27T14:30:25.852Z,72.73
2023-04-27T14:32:53.937Z,67.22
2023-04-27T14:35:21.069Z,67.48
2023-04-27T14:37:47.703Z,69.51
2023-04-27T14:40:14.317Z,65.85
2023-04-27T14:42:41.495Z,66.27
2023-04-27T14:45:09.265Z,65.08
2023-04-27T14:47:37.288Z,66.53
2023-04-27T14:50:06.606Z,66.88
2023-04-27T14:52:33.229Z,67.31
2023-04-27T14:55:00.734Z,64.46
2023-04-27T14:57:27.735Z,65.42
2023-04-27T14:59:54.390Z,64.00
2023-04-27T15:02:21.011Z,70.52
2023-04-27T15:04:47.702Z,67.62
2023-04-27T15:07:15.873Z,63.52
2023-04-27T15:09:42.452Z,68.53
2023-04-27T15:12:10.175Z,67.77
2023-04-27T15:14:36.771Z,63.14
2023-04-27T15:17:03.407Z,64.79
2023-04-27T15:19:29.998Z,63.00
2023-04-27T15:21:56.627Z,62.14
2023-04-27T15:24:24.650Z,64.62
2023-04-27T15:26:51.236Z,69.69
2023-04-27T15:29:17.844Z,70.39
2023-04-27T15:31:47.255Z,70.94
2023-04-27T15:34:14.000Z,70.75
2023-04-27T15:36:40.726Z,69.27
2023-04-27T15:39:10.013Z,67.20
2023-04-27T15:41:38.331Z,68.69
2023-04-27T15:44:05.521Z,70.21
2023-04-27T15:46:32.166Z,70.92
2023-04-27T15:48:58.793Z,66.90
2023-04-27T15:51:25.398Z,68.49
2023-04-27T15:53:51.961Z,71.15
2023-04-27T15:56:18.631Z,71.80
2023-04-27T15:58:46.600Z,71.79
2023-04-27T16:01:13.228Z,72.03
2023-04-27T16:03:39.937Z,71.97
2023-04-27T16:06:07.526Z,72.21
2023-04-27T16:08:34.144Z,72.82
2023-04-27T16:11:00.901Z,72.17
2023-04-27T16:13:28.510Z,73.13
2023-04-27T16:15:56.889Z,72.85
2023-04-27T16:18:23.465Z,72.75
2023-04-27T16:20:50.079Z,72.36
2023-04-27T16:23:17.123Z,71.40
2023-04-27T16:25:43.725Z,67.43
2023-04-27T16:28:10.513Z,67.97
2023-04-27T16:30:37.492Z,64.72
2023-04-27T16:33:05.681Z,68.69
2023-04-27T16:35:33.572Z,70.72
2023-04-27T16:38:00.358Z,70.51
2023-04-27T16:40:27.024Z,71.23
2023-04-27T16:42:53.647Z,71.30
2023-04-27T16:45:20.576Z,71.67
2023-04-27T16:47:47.647Z,71.47
2023-04-27T16:50:15.657Z,71.63
2023-04-27T16:52:42.348Z,71.16
2023-04-27T16:55:09.441Z,71.63
2023-04-27T16:57:36.508Z,72.04
2023-04-27T17:00:06.080Z,72.44
2023-04-27T17:02:33.121Z,72.19
2023-04-27T17:05:00.664Z,72.42
2023-04-27T17:07:32.468Z,72.06
2023-04-27T17:09:59.654Z,72.26
2023-04-27T17:12:26.373Z,72.09
2023-04-27T17:14:53.043Z,72.46
2023-04-27T17:17:19.963Z,72.20
2023-04-27T17:19:46.575Z,72.31
2023-04-27T17:22:14.766Z,72.51
2023-04-27T17:24:42.670Z,72.52
2023-04-27T17:27:09.747Z,72.51
2023-04-27T17:29:37.214Z,72.73
2023-04-27T17:32:04.695Z,72.82
2023-04-27T17:34:31.573Z,72.96
2023-04-27T17:36:58.344Z,72.76
2023-04-27T17:39:25.217Z,72.90
2023-04-27T17:41:53.223Z,73.05
2023-04-27T17:44:19.849Z,73.02
2023-04-27T17:46:46.845Z,72.83
2023-04-27T17:49:14.095Z,73.08
2023-04-27T17:51:41.402Z,73.10
2023-04-27T17:54:08.079Z,72.93
2023-04-27T17:56:34.957Z,73.15
2023-04-27T17:59:03.156Z,73.40
2023-04-27T18:01:30.118Z,73.12
2023-04-27T18:03:56.891Z,73.19
2023-04-27T18:06:23.519Z,73.01
2023-04-27T18:08:50.360Z,73.09
2023-04-27T18:11:16.941Z,73.10
2023-04-27T18:13:43.621Z,73.02
2023-04-27T18:16:11.690Z,73.38
2023-04-27T18:18:38.380Z,73.46
2023-04-27T18:21:06.632Z,73.40
2023-04-27T18:23:34.696Z,73.08
2023-04-27T18:26:01.289Z,72.94
2023-04-27T18:28:27.883Z,73.02
2023-04-27T18:30:54.467Z,73.33
2023-04-27T18:33:22.704Z,73.07
2023-04-27T18:35:50.644Z,72.96
2023-04-27T18:38:17.276Z,72.96
2023-04-27T18:40:43.942Z,72.74
2023-04-27T18:43:10.541Z,73.10
2023-04-27T18:45:37.214Z,73.23
2023-04-27T18:48:04.233Z,73.03
2023-04-27T18:50:32.255Z,73.18
2023-04-27T18:52:59.123Z,73.29
2023-04-27T18:55:26.157Z,73.06
2023-04-27T18:57:52.852Z,72.85
2023-04-27T19:00:20.011Z,71.21
2023-04-27T19:02:46.720Z,75.03
2023-04-27T19:05:15.798Z,73.58
2023-04-27T19:07:43.814Z,73.99
2023-04-27T19:10:11.969Z,73.13
2023-04-27T19:12:38.788Z,73.03
2023-04-27T19:15:06.293Z,73.08
2023-04-27T19:17:33.237Z,72.66
2023-04-27T19:19:59.989Z,72.87
2023-04-27T19:22:27.855Z,72.59
2023-04-27T19:24:56.013Z,72.74
2023-04-27T19:27:22.702Z,72.57
2023-04-27T19:29:52.097Z,72.76
2023-04-27T19:32:19.618Z,72.67
2023-04-27T19:34:46.560Z,72.59
2023-04-27T19:37:13.580Z,72.13
2023-04-27T19:39:40.250Z,72.31
2023-04-27T19:42:08.391Z,77.84
2023-04-27T19:44:35.114Z,73.87
2023-04-27T19:47:01.740Z,72.66
2023-04-27T19:49:30.962Z,72.44
2023-04-27T19:51:57.693Z,67.00
2023-04-27T19:54:24.276Z,67.97
2023-04-27T19:56:50.905Z,73.59
2023-04-27T19:59:18.855Z,71.76
2023-04-27T20:01:46.517Z,71.47
2023-04-27T20:04:13.446Z,71.08
2023-04-27T20:06:43.233Z,72.19
2023-04-27T20:09:10.064Z,71.61
2023-04-27T20:11:36.788Z,71.53
2023-04-27T20:14:03.430Z,71.21
2023-04-27T20:16:31.498Z,71.11
2023-04-27T20:18:58.132Z,71.23
2023-04-27T20:21:24.818Z,71.64
2023-04-27T20:23:51.410Z,67.51
2023-04-27T20:26:18.169Z,71.56
2023-04-27T20:28:44.745Z,71.03
2023-04-27T20:31:12.083Z,71.31
2023-04-27T20:33:40.085Z,66.11
2023-04-27T20:36:16.565Z,76.28
2023-04-27T20:38:44.355Z,72.73
2023-04-27T20:41:12.368Z,71.61
2023-04-27T20:43:39.910Z,67.85
2023-04-27T20:46:07.340Z,78.21
2023-04-27T20:48:34.146Z,76.29
2023-04-27T20:51:02.376Z,72.31
2023-04-27T20:53:29.086Z,65.70
2023-04-27T20:55:56.911Z,73.06
2023-04-27T20:58:23.767Z,72.02
2023-04-27T21:00:50.750Z,71.52
2023-04-27T21:03:17.613Z,71.18
2023-04-27T21:05:44.474Z,70.91
2023-04-27T21:08:12.432Z,71.38
2023-04-27T21:10:39.081Z,70.97
2023-04-27T21:13:05.840Z,71.37
2023-04-27T21:15:33.409Z,71.03
2023-04-27T21:18:00.628Z,71.28
2023-04-27T21:20:27.353Z,75.95
2023-04-27T21:22:54.024Z,73.98
2023-04-27T21:25:23.715Z,78.11
2023-04-27T21:27:50.680Z,73.39
2023-04-27T21:30:17.298Z,71.70
2023-04-27T21:32:44.019Z,71.97
2023-04-27T21:35:11.039Z,71.56
2023-04-27T21:37:37.705Z,71.52
2023-04-27T21:40:06.054Z,73.81
2023-04-27T21:42:34.004Z,66.62
2023-04-27T21:45:00.928Z,72.72
2023-04-27T21:47:27.626Z,73.97
2023-04-27T21:49:54.252Z,71.92
2023-04-27T21:52:21.654Z,71.71
2023-04-27T21:54:48.361Z,71.59
2023-04-27T21:57:14.985Z,71.34
2023-04-27T21:59:42.919Z,71.22
2023-04-27T22:02:09.871Z,71.22
2023-04-27T22:04:38.337Z,70.90
2023-04-27T22:07:05.475Z,69.31
2023-04-27T22:09:32.073Z,74.25
2023-04-27T22:11:58.634Z,71.61
2023-04-27T22:14:25.266Z,65.98
2023-04-27T22:16:53.163Z,78.75
2023-04-27T22:19:19.718Z,68.01
2023-04-27T22:21:46.457Z,76.25
2023-04-27T22:24:13.260Z,73.43
2023-04-27T22:26:39.932Z,65.82
2023-04-27T22:29:06.536Z,76.15
2023-04-27T22:31:33.196Z,73.82
2023-04-27T22:34:02.171Z,72.40
2023-04-27T22:36:28.891Z,71.76
2023-04-27T22:38:55.519Z,71.16
2023-04-27T22:41:22.450Z,71.06
2023-04-27T22:43:49.020Z,70.20
2023-04-27T22:46:15.901Z,71.30
2023-04-27T22:48:43.589Z,71.58
2023-04-27T22:51:11.782Z,71.25
2023-04-27T22:53:38.382Z,71.64
2023-04-27T22:56:06.038Z,71.11
2023-04-27T22:58:32.643Z,71.03
2023-04-27T23:00:59.340Z,71.29
2023-04-27T23:03:26.932Z,70.72
2023-04-27T23:05:53.612Z,69.71
2023-04-27T23:08:25.084Z,71.30
2023-04-27T23:10:53.187Z,71.54
2023-04-27T23:13:26.714Z,70.95
2023-04-27T23:15:56.374Z,70.95
2023-04-27T23:18:22.788Z,71.07
2023-04-27T23:20:52.584Z,76.95
2023-04-27T23:23:19.181Z,79.17
2023-04-27T23:25:47.389Z,69.34
2023-04-27T23:28:14.045Z,75.52
2023-04-27T23:30:40.968Z,72.37
2023-04-27T23:33:07.742Z,72.36
2023-04-27T23:35:34.342Z,71.37
2023-04-27T23:38:01.073Z,71.29
2023-04-27T23:40:27.686Z,69.59
2023-04-27T23:42:55.885Z,71.69
2023-04-27T23:45:22.538Z,71.33
2023-04-27T23:47:49.170Z,71.46
2023-04-27T23:50:15.851Z,70.77
2023-04-27T23:52:42.703Z,66.68
2023-04-27T23:55:10.262Z,75.67
2023-04-27T23:57:37.110Z,74.87
